sensor_id;sensor_type;location;lat;lon;timestamp;temperature;humidity
5588;DHT22;2816;49.778;9.986;2023-08-06T00:01:00;17.00;99.90
5588;DHT22;2816;49.778;9.986;2023-08-06T00:03:26;17.20;99.90
5588;DHT22;2816;49.778;9.986;2023-08-06T00:05:53;17.30;99.90
5588;DHT22;2816;49.778;9.986;2023-08-06T00:08:21;17.30;99.90
5588;DHT22;2816;49.778;9.986;2023-08-06T00:10:49;17.30;99.90
5588;DHT22;2816;49.778;9.986;2023-08-06T00:13:16;17.20;99.90
5588;DHT22;2816;49.778;9.986;2023-08-06T00:15:43;17.30;99.90
5588;DHT22;2816;49.778;9.986;2023-08-06T00:18:10;17.30;99.90
5588;DHT22;2816;49.778;9.986;2023-08-06T00:20:39;17.30;99.90
5588;DHT22;2816;49.778;9.986;2023-08-06T00:23:07;17.20;99.90
5588;DHT22;2816;49.778;9.986;2023-08-06T00:25:33;17.20;99.90
5588;DHT22;2816;49.778;9.986;2023-08-06T00:28:02;17.30;99.90
5588;DHT22;2816;49.778;9.986;2023-08-06T00:30:29;17.30;99.90
5588;DHT22;2816;49.778;9.986;2023-08-06T00:32:56;17.30;99.90
5588;DHT22;2816;49.778;9.986;2023-08-06T00:35:22;17.20;99.90
5588;DHT22;2816;49.778;9.986;2023-08-06T00:37:49;17.20;99.90
5588;DHT22;2816;49.778;9.986;2023-08-06T00:40:16;17.30;99.90
5588;DHT22;2816;49.778;9.986;2023-08-06T00:42:46;17.30;99.90
5588;DHT22;2816;49.778;9.986;2023-08-06T00:45:14;17.30;99.90
5588;DHT22;2816;49.778;9.986;2023-08-06T00:47:41;17.10;99.90
5588;DHT22;2816;49.778;9.986;2023-08-06T00:50:09;17.10;99.90
5588;DHT22;2816;49.778;9.986;2023-08-06T00:52:36;17.20;99.90
5588;DHT22;2816;49.778;9.986;2023-08-06T00:55:05;17.20;99.90
5588;DHT22;2816;49.778;9.986;2023-08-06T00:57:32;17.20;99.90
5588;DHT22;2816;49.778;9.986;2023-08-06T00:59:59;17.10;99.90
5588;DHT22;2816;49.778;9.986;2023-08-06T01:02:27;17.20;99.90
5588;DHT22;2816;49.778;9.986;2023-08-06T01:04:54;17.10;99.90
5588;DHT22;2816;49.778;9.986;2023-08-06T01:07:33;17.10;99.90
5588;DHT22;2816;49.778;9.986;2023-08-06T01:10:25;17.20;99.90
5588;DHT22;2816;49.778;9.986;2023-08-06T01:13:05;17.20;99.90
5588;DHT22;2816;49.778;9.986;2023-08-06T01:15:43;17.20;99.90
5588;DHT22;2816;49.778;9.986;2023-08-06T01:18:14;17.20;99.90
5588;DHT22;2816;49.778;9.986;2023-08-06T01:20:42;17.20;99.90
5588;DHT22;2816;49.778;9.986;2023-08-06T01:23:09;17.20;99.90
5588;DHT22;2816;49.778;9.986;2023-08-06T01:25:41;17.20;99.90
5588;DHT22;2816;49.778;9.986;2023-08-06T01:28:18;17.10;99.90
5588;DHT22;2816;49.778;9.986;2023-08-06T01:30:49;17.10;99.90
5588;DHT22;2816;49.778;9.986;2023-08-06T01:33:19;17.20;99.90
5588;DHT22;2816;49.778;9.986;2023-08-06T01:35:49;17.10;99.90
5588;DHT22;2816;49.778;9.986;2023-08-06T01:38:18;16.80;99.90
5588;DHT22;2816;49.778;9.986;2023-08-06T01:40:45;16.60;99.90
5588;DHT22;2816;49.778;9.986;2023-08-06T01:43:12;16.50;99.90
5588;DHT22;2816;49.778;9.986;2023-08-06T01:45:39;16.60;99.90
5588;DHT22;2816;49.778;9.986;2023-08-06T01:48:06;16.80;99.90
5588;DHT22;2816;49.778;9.986;2023-08-06T01:50:33;16.70;99.90
5588;DHT22;2816;49.778;9.986;2023-08-06T01:53:01;16.80;99.90
5588;DHT22;2816;49.778;9.986;2023-08-06T01:55:29;16.70;99.90
5588;DHT22;2816;49.778;9.986;2023-08-06T01:57:56;16.50;99.90
5588;DHT22;2816;49.778;9.986;2023-08-06T02:00:23;16.50;99.90
5588;DHT22;2816;49.778;9.986;2023-08-06T02:02:49;16.50;99.90
5588;DHT22;2816;49.778;9.986;2023-08-06T02:05:16;16.50;99.90
5588;DHT22;2816;49.778;9.986;2023-08-06T02:07:43;16.50;99.90
5588;DHT22;2816;49.778;9.986;2023-08-06T02:10:11;16.50;99.90
5588;DHT22;2816;49.778;9.986;2023-08-06T02:12:38;16.50;99.90
5588;DHT22;2816;49.778;9.986;2023-08-06T02:15:06;16.50;99.90
5588;DHT22;2816;49.778;9.986;2023-08-06T02:17:33;16.50;99.90
5588;DHT22;2816;49.778;9.986;2023-08-06T02:20:00;16.40;99.90
5588;DHT22;2816;49.778;9.986;2023-08-06T02:22:27;16.40;99.90
5588;DHT22;2816;49.778;9.986;2023-08-06T02:24:54;16.40;99.90
5588;DHT22;2816;49.778;9.986;2023-08-06T02:27:22;16.50;99.90
5588;DHT22;2816;49.778;9.986;2023-08-06T02:29:49;16.50;99.90
5588;DHT22;2816;49.778;9.986;2023-08-06T02:32:16;16.60;99.90
5588;DHT22;2816;49.778;9.986;2023-08-06T02:34:43;16.70;99.90
5588;DHT22;2816;49.778;9.986;2023-08-06T02:37:10;16.70;99.90
5588;DHT22;2816;49.778;9.986;2023-08-06T02:39:36;16.60;99.90
5588;DHT22;2816;49.778;9.986;2023-08-06T02:42:06;16.60;99.90
5588;DHT22;2816;49.778;9.986;2023-08-06T02:44:34;16.50;99.90
5588;DHT22;2816;49.778;9.986;2023-08-06T02:47:01;16.40;99.90
5588;DHT22;2816;49.778;9.986;2023-08-06T02:49:28;16.30;99.90
5588;DHT22;2816;49.778;9.986;2023-08-06T02:51:55;16.30;99.90
5588;DHT22;2816;49.778;9.986;2023-08-06T02:54:22;16.40;99.90
5588;DHT22;2816;49.778;9.986;2023-08-06T02:56:49;16.50;99.90
5588;DHT22;2816;49.778;9.986;2023-08-06T02:59:15;16.60;99.90
5588;DHT22;2816;49.778;9.986;2023-08-06T03:01:44;16.50;99.90
5588;DHT22;2816;49.778;9.986;2023-08-06T03:04:11;16.60;99.90
5588;DHT22;2816;49.778;9.986;2023-08-06T03:06:38;16.50;99.90
5588;DHT22;2816;49.778;9.986;2023-08-06T03:09:05;16.50;99.90
5588;DHT22;2816;49.778;9.986;2023-08-06T03:11:31;16.50;99.90
5588;DHT22;2816;49.778;9.986;2023-08-06T03:13:58;16.50;99.90
5588;DHT22;2816;49.778;9.986;2023-08-06T03:16:25;16.40;99.90
5588;DHT22;2816;49.778;9.986;2023-08-06T03:18:53;16.40;99.90
5588;DHT22;2816;49.778;9.986;2023-08-06T03:21:21;16.30;99.90
5588;DHT22;2816;49.778;9.986;2023-08-06T03:23:48;16.30;99.90
5588;DHT22;2816;49.778;9.986;2023-08-06T03:26:15;16.30;99.90
5588;DHT22;2816;49.778;9.986;2023-08-06T03:28:42;16.20;99.90
5588;DHT22;2816;49.778;9.986;2023-08-06T03:31:09;16.10;99.90
5588;DHT22;2816;49.778;9.986;2023-08-06T03:33:36;16.00;99.90
5588;DHT22;2816;49.778;9.986;2023-08-06T03:36:04;15.80;99.90
5588;DHT22;2816;49.778;9.986;2023-08-06T03:38:31;15.80;99.90
5588;DHT22;2816;49.778;9.986;2023-08-06T03:40:58;15.60;99.90
5588;DHT22;2816;49.778;9.986;2023-08-06T03:43:25;15.60;99.90
5588;DHT22;2816;49.778;9.986;2023-08-06T03:45:52;15.60;99.90
5588;DHT22;2816;49.778;9.986;2023-08-06T03:48:19;15.50;99.90
5588;DHT22;2816;49.778;9.986;2023-08-06T03:50:45;15.50;99.90
5588;DHT22;2816;49.778;9.986;2023-08-06T03:53:14;15.50;99.90
5588;DHT22;2816;49.778;9.986;2023-08-06T03:55:41;15.40;99.90
5588;DHT22;2816;49.778;9.986;2023-08-06T03:58:08;15.40;99.90
5588;DHT22;2816;49.778;9.986;2023-08-06T04:00:34;15.30;99.90
5588;DHT22;2816;49.778;9.986;2023-08-06T04:03:01;15.30;99.90
5588;DHT22;2816;49.778;9.986;2023-08-06T04:05:31;15.30;99.90
5588;DHT22;2816;49.778;9.986;2023-08-06T04:07:58;15.20;99.90
5588;DHT22;2816;49.778;9.986;2023-08-06T04:10:26;15.20;99.90
5588;DHT22;2816;49.778;9.986;2023-08-06T04:12:53;15.20;99.90
5588;DHT22;2816;49.778;9.986;2023-08-06T04:15:20;15.20;99.90
5588;DHT22;2816;49.778;9.986;2023-08-06T04:17:47;15.10;99.90
5588;DHT22;2816;49.778;9.986;2023-08-06T04:20:14;15.10;99.90
5588;DHT22;2816;49.778;9.986;2023-08-06T04:22:41;15.10;99.90
5588;DHT22;2816;49.778;9.986;2023-08-06T04:25:09;15.00;99.90
5588;DHT22;2816;49.778;9.986;2023-08-06T04:27:37;15.00;99.90
5588;DHT22;2816;49.778;9.986;2023-08-06T04:30:08;15.00;99.90
5588;DHT22;2816;49.778;9.986;2023-08-06T04:32:37;15.00;99.90
5588;DHT22;2816;49.778;9.986;2023-08-06T04:35:04;14.90;99.90
5588;DHT22;2816;49.778;9.986;2023-08-06T04:37:31;14.80;99.90
5588;DHT22;2816;49.778;9.986;2023-08-06T04:39:58;14.80;99.90
5588;DHT22;2816;49.778;9.986;2023-08-06T04:42:25;14.90;99.90
5588;DHT22;2816;49.778;9.986;2023-08-06T04:44:54;14.90;99.90
5588;DHT22;2816;49.778;9.986;2023-08-06T04:47:21;15.00;99.90
5588;DHT22;2816;49.778;9.986;2023-08-06T04:49:48;15.00;99.90
5588;DHT22;2816;49.778;9.986;2023-08-06T04:52:15;15.00;99.90
5588;DHT22;2816;49.778;9.986;2023-08-06T04:54:43;15.00;99.90
5588;DHT22;2816;49.778;9.986;2023-08-06T04:57:10;15.00;99.90
5588;DHT22;2816;49.778;9.986;2023-08-06T04:59:37;15.00;99.90
5588;DHT22;2816;49.778;9.986;2023-08-06T05:02:05;15.10;99.90
5588;DHT22;2816;49.778;9.986;2023-08-06T05:04:32;15.30;99.90
5588;DHT22;2816;49.778;9.986;2023-08-06T05:06:59;15.40;99.90
5588;DHT22;2816;49.778;9.986;2023-08-06T05:09:27;15.40;99.90
5588;DHT22;2816;49.778;9.986;2023-08-06T05:11:54;15.50;99.90
5588;DHT22;2816;49.778;9.986;2023-08-06T05:14:21;15.60;99.90
5588;DHT22;2816;49.778;9.986;2023-08-06T05:16:48;15.70;99.90
5588;DHT22;2816;49.778;9.986;2023-08-06T05:19:16;15.70;99.90
5588;DHT22;2816;49.778;9.986;2023-08-06T05:21:43;15.90;99.90
5588;DHT22;2816;49.778;9.986;2023-08-06T05:24:10;15.90;99.90
5588;DHT22;2816;49.778;9.986;2023-08-06T05:26:37;16.00;99.90
5588;DHT22;2816;49.778;9.986;2023-08-06T05:29:04;16.10;99.90
5588;DHT22;2816;49.778;9.986;2023-08-06T05:31:31;16.10;99.90
5588;DHT22;2816;49.778;9.986;2023-08-06T05:33:58;16.10;99.90
5588;DHT22;2816;49.778;9.986;2023-08-06T05:36:26;16.10;99.90
5588;DHT22;2816;49.778;9.986;2023-08-06T05:38:53;16.20;99.90
5588;DHT22;2816;49.778;9.986;2023-08-06T05:41:20;16.20;99.90
5588;DHT22;2816;49.778;9.986;2023-08-06T05:43:47;16.30;99.90
5588;DHT22;2816;49.778;9.986;2023-08-06T05:46:15;16.30;99.90
5588;DHT22;2816;49.778;9.986;2023-08-06T05:48:42;16.30;99.90
5588;DHT22;2816;49.778;9.986;2023-08-06T05:51:09;16.30;99.90
5588;DHT22;2816;49.778;9.986;2023-08-06T05:53:39;16.40;99.90
5588;DHT22;2816;49.778;9.986;2023-08-06T05:56:06;16.50;99.90
5588;DHT22;2816;49.778;9.986;2023-08-06T05:58:33;16.40;99.90
5588;DHT22;2816;49.778;9.986;2023-08-06T06:01:00;16.50;99.90
5588;DHT22;2816;49.778;9.986;2023-08-06T06:03:27;16.40;99.90
5588;DHT22;2816;49.778;9.986;2023-08-06T06:05:54;16.50;99.90
5588;DHT22;2816;49.778;9.986;2023-08-06T06:08:21;16.50;99.90
5588;DHT22;2816;49.778;9.986;2023-08-06T06:10:49;16.40;99.90
5588;DHT22;2816;49.778;9.986;2023-08-06T06:13:16;16.30;99.90
5588;DHT22;2816;49.778;9.986;2023-08-06T06:15:43;16.20;99.90
5588;DHT22;2816;49.778;9.986;2023-08-06T06:18:10;16.30;99.90
5588;DHT22;2816;49.778;9.986;2023-08-06T06:20:37;16.40;99.90
5588;DHT22;2816;49.778;9.986;2023-08-06T06:23:04;16.40;99.90
5588;DHT22;2816;49.778;9.986;2023-08-06T06:25:31;16.30;99.90
5588;DHT22;2816;49.778;9.986;2023-08-06T06:27:59;16.30;99.90
5588;DHT22;2816;49.778;9.986;2023-08-06T06:30:26;16.20;99.90
5588;DHT22;2816;49.778;9.986;2023-08-06T06:32:53;16.30;99.90
5588;DHT22;2816;49.778;9.986;2023-08-06T06:35:20;16.30;99.90
5588;DHT22;2816;49.778;9.986;2023-08-06T06:37:47;16.40;99.90
5588;DHT22;2816;49.778;9.986;2023-08-06T06:40:15;16.50;99.90
5588;DHT22;2816;49.778;9.986;2023-08-06T06:42:42;16.50;99.90
5588;DHT22;2816;49.778;9.986;2023-08-06T06:45:10;16.60;99.90
5588;DHT22;2816;49.778;9.986;2023-08-06T06:47:37;16.60;99.90
5588;DHT22;2816;49.778;9.986;2023-08-06T06:50:05;16.50;99.90
5588;DHT22;2816;49.778;9.986;2023-08-06T06:52:32;16.50;99.90
5588;DHT22;2816;49.778;9.986;2023-08-06T06:54:59;16.40;99.90
5588;DHT22;2816;49.778;9.986;2023-08-06T06:57:26;16.50;99.90
5588;DHT22;2816;49.778;9.986;2023-08-06T06:59:53;16.50;99.90
5588;DHT22;2816;49.778;9.986;2023-08-06T07:02:21;16.40;99.90
5588;DHT22;2816;49.778;9.986;2023-08-06T07:04:49;16.30;99.90
5588;DHT22;2816;49.778;9.986;2023-08-06T07:07:16;16.20;99.90
5588;DHT22;2816;49.778;9.986;2023-08-06T07:09:44;16.20;99.90
5588;DHT22;2816;49.778;9.986;2023-08-06T07:12:11;16.20;99.90
5588;DHT22;2816;49.778;9.986;2023-08-06T07:14:38;16.30;99.90
5588;DHT22;2816;49.778;9.986;2023-08-06T07:17:05;16.40;99.90
5588;DHT22;2816;49.778;9.986;2023-08-06T07:19:34;16.40;99.90
5588;DHT22;2816;49.778;9.986;2023-08-06T07:22:00;16.40;99.90
5588;DHT22;2816;49.778;9.986;2023-08-06T07:24:27;16.60;99.90
5588;DHT22;2816;49.778;9.986;2023-08-06T07:26:54;16.50;99.90
5588;DHT22;2816;49.778;9.986;2023-08-06T07:29:21;16.50;99.90
5588;DHT22;2816;49.778;9.986;2023-08-06T07:31:48;16.50;99.90
5588;DHT22;2816;49.778;9.986;2023-08-06T07:34:15;16.60;99.90
5588;DHT22;2816;49.778;9.986;2023-08-06T07:36:45;16.50;99.90
5588;DHT22;2816;49.778;9.986;2023-08-06T07:39:12;16.70;99.90
5588;DHT22;2816;49.778;9.986;2023-08-06T07:41:39;16.40;99.90
5588;DHT22;2816;49.778;9.986;2023-08-06T07:44:07;16.60;99.90
5588;DHT22;2816;49.778;9.986;2023-08-06T07:46:33;16.60;99.90
5588;DHT22;2816;49.778;9.986;2023-08-06T07:49:01;16.60;99.90
5588;DHT22;2816;49.778;9.986;2023-08-06T07:51:28;16.60;99.90
5588;DHT22;2816;49.778;9.986;2023-08-06T07:53:56;16.70;99.90
5588;DHT22;2816;49.778;9.986;2023-08-06T07:56:23;16.50;99.90
5588;DHT22;2816;49.778;9.986;2023-08-06T07:58:50;16.60;99.90
5588;DHT22;2816;49.778;9.986;2023-08-06T08:01:17;16.80;99.90
5588;DHT22;2816;49.778;9.986;2023-08-06T08:03:43;16.80;99.90
5588;DHT22;2816;49.778;9.986;2023-08-06T08:06:11;16.70;99.90
5588;DHT22;2816;49.778;9.986;2023-08-06T08:08:38;16.70;99.90
5588;DHT22;2816;49.778;9.986;2023-08-06T08:11:07;16.80;99.90
5588;DHT22;2816;49.778;9.986;2023-08-06T08:13:34;16.80;99.90
5588;DHT22;2816;49.778;9.986;2023-08-06T08:16:01;16.90;99.90
5588;DHT22;2816;49.778;9.986;2023-08-06T08:18:28;16.90;99.90
5588;DHT22;2816;49.778;9.986;2023-08-06T08:20:57;16.80;99.90
5588;DHT22;2816;49.778;9.986;2023-08-06T08:23:24;16.80;99.90
5588;DHT22;2816;49.778;9.986;2023-08-06T08:25:50;16.80;99.90
5588;DHT22;2816;49.778;9.986;2023-08-06T08:28:19;16.70;99.90
5588;DHT22;2816;49.778;9.986;2023-08-06T08:30:46;16.60;99.90
5588;DHT22;2816;49.778;9.986;2023-08-06T08:33:13;16.60;99.90
5588;DHT22;2816;49.778;9.986;2023-08-06T08:35:40;16.70;99.90
5588;DHT22;2816;49.778;9.986;2023-08-06T08:38:07;16.50;99.90
5588;DHT22;2816;49.778;9.986;2023-08-06T08:40:37;16.50;99.90
5588;DHT22;2816;49.778;9.986;2023-08-06T08:43:07;16.50;99.90
5588;DHT22;2816;49.778;9.986;2023-08-06T08:45:39;16.50;99.90
5588;DHT22;2816;49.778;9.986;2023-08-06T08:48:06;16.50;99.90
5588;DHT22;2816;49.778;9.986;2023-08-06T08:50:34;16.50;99.90
5588;DHT22;2816;49.778;9.986;2023-08-06T08:53:01;16.50;99.90
5588;DHT22;2816;49.778;9.986;2023-08-06T08:55:28;16.50;99.90
5588;DHT22;2816;49.778;9.986;2023-08-06T08:57:55;16.60;99.90
5588;DHT22;2816;49.778;9.986;2023-08-06T09:00:22;16.70;99.90
5588;DHT22;2816;49.778;9.986;2023-08-06T09:02:50;16.70;99.90
5588;DHT22;2816;49.778;9.986;2023-08-06T09:05:18;16.70;99.90
5588;DHT22;2816;49.778;9.986;2023-08-06T09:07:48;16.70;99.90
5588;DHT22;2816;49.778;9.986;2023-08-06T09:10:16;16.60;99.90
5588;DHT22;2816;49.778;9.986;2023-08-06T09:12:45;16.70;99.90
5588;DHT22;2816;49.778;9.986;2023-08-06T09:15:12;16.60;99.90
5588;DHT22;2816;49.778;9.986;2023-08-06T09:17:39;16.70;99.90
5588;DHT22;2816;49.778;9.986;2023-08-06T09:20:11;16.70;99.90
5588;DHT22;2816;49.778;9.986;2023-08-06T09:22:39;16.70;99.90
5588;DHT22;2816;49.778;9.986;2023-08-06T09:25:07;16.90;99.90
5588;DHT22;2816;49.778;9.986;2023-08-06T09:27:36;16.90;99.90
5588;DHT22;2816;49.778;9.986;2023-08-06T09:30:03;17.00;99.90
5588;DHT22;2816;49.778;9.986;2023-08-06T09:32:45;17.00;99.90
5588;DHT22;2816;49.778;9.986;2023-08-06T09:35:17;16.70;99.90
5588;DHT22;2816;49.778;9.986;2023-08-06T09:37:44;16.80;99.90
5588;DHT22;2816;49.778;9.986;2023-08-06T09:40:28;16.80;99.90
5588;DHT22;2816;49.778;9.986;2023-08-06T09:42:55;16.90;99.90
5588;DHT22;2816;49.778;9.986;2023-08-06T09:45:22;16.80;99.90
5588;DHT22;2816;49.778;9.986;2023-08-06T09:47:49;17.00;99.90
5588;DHT22;2816;49.778;9.986;2023-08-06T09:50:19;16.90;99.90
5588;DHT22;2816;49.778;9.986;2023-08-06T09:52:47;17.10;99.90
5588;DHT22;2816;49.778;9.986;2023-08-06T09:55:15;17.00;99.90
5588;DHT22;2816;49.778;9.986;2023-08-06T09:57:42;17.10;99.90
5588;DHT22;2816;49.778;9.986;2023-08-06T10:00:10;17.20;99.90
5588;DHT22;2816;49.778;9.986;2023-08-06T10:02:39;17.10;99.90
5588;DHT22;2816;49.778;9.986;2023-08-06T10:05:07;17.20;99.90
5588;DHT22;2816;49.778;9.986;2023-08-06T10:07:37;17.20;99.90
5588;DHT22;2816;49.778;9.986;2023-08-06T10:10:05;17.40;99.90
5588;DHT22;2816;49.778;9.986;2023-08-06T10:12:36;17.40;99.90
5588;DHT22;2816;49.778;9.986;2023-08-06T10:15:08;17.60;99.90
5588;DHT22;2816;49.778;9.986;2023-08-06T10:17:37;17.50;99.90
5588;DHT22;2816;49.778;9.986;2023-08-06T10:20:06;17.70;99.90
5588;DHT22;2816;49.778;9.986;2023-08-06T10:22:33;17.80;99.90
5588;DHT22;2816;49.778;9.986;2023-08-06T10:25:02;17.80;99.90
5588;DHT22;2816;49.778;9.986;2023-08-06T10:27:33;17.70;99.90
5588;DHT22;2816;49.778;9.986;2023-08-06T10:30:24;17.50;99.90
5588;DHT22;2816;49.778;9.986;2023-08-06T10:32:53;17.60;99.90
5588;DHT22;2816;49.778;9.986;2023-08-06T10:35:30;17.50;99.90
5588;DHT22;2816;49.778;9.986;2023-08-06T10:38:04;17.50;99.90
5588;DHT22;2816;49.778;9.986;2023-08-06T10:40:33;17.50;99.90
5588;DHT22;2816;49.778;9.986;2023-08-06T10:43:00;17.60;99.90
5588;DHT22;2816;49.778;9.986;2023-08-06T10:45:27;17.80;99.90
5588;DHT22;2816;49.778;9.986;2023-08-06T10:47:56;17.80;99.90
5588;DHT22;2816;49.778;9.986;2023-08-06T10:50:24;17.70;99.90
5588;DHT22;2816;49.778;9.986;2023-08-06T10:52:51;17.80;99.90
5588;DHT22;2816;49.778;9.986;2023-08-06T10:55:26;17.90;99.90
5588;DHT22;2816;49.778;9.986;2023-08-06T10:57:55;18.10;99.90
5588;DHT22;2816;49.778;9.986;2023-08-06T11:00:23;18.30;99.90
5588;DHT22;2816;49.778;9.986;2023-08-06T11:02:51;18.30;99.90
5588;DHT22;2816;49.778;9.986;2023-08-06T11:05:18;18.30;99.90
5588;DHT22;2816;49.778;9.986;2023-08-06T11:07:45;18.30;99.90
5588;DHT22;2816;49.778;9.986;2023-08-06T11:10:13;18.20;99.90
5588;DHT22;2816;49.778;9.986;2023-08-06T11:12:40;18.00;99.90
5588;DHT22;2816;49.778;9.986;2023-08-06T11:15:10;17.90;99.90
5588;DHT22;2816;49.778;9.986;2023-08-06T11:17:37;17.60;99.90
5588;DHT22;2816;49.778;9.986;2023-08-06T11:20:07;17.60;99.90
5588;DHT22;2816;49.778;9.986;2023-08-06T11:22:36;17.50;99.90
5588;DHT22;2816;49.778;9.986;2023-08-06T11:25:03;17.50;99.90
5588;DHT22;2816;49.778;9.986;2023-08-06T11:27:31;17.60;99.90
5588;DHT22;2816;49.778;9.986;2023-08-06T11:29:58;17.80;99.90
5588;DHT22;2816;49.778;9.986;2023-08-06T11:32:26;18.00;99.90
5588;DHT22;2816;49.778;9.986;2023-08-06T11:34:54;18.30;99.90
5588;DHT22;2816;49.778;9.986;2023-08-06T11:37:22;18.30;99.90
5588;DHT22;2816;49.778;9.986;2023-08-06T11:39:50;18.40;99.90
5588;DHT22;2816;49.778;9.986;2023-08-06T11:42:18;18.20;99.90
5588;DHT22;2816;49.778;9.986;2023-08-06T11:44:44;18.10;99.90
5588;DHT22;2816;49.778;9.986;2023-08-06T11:47:16;18.30;99.90
5588;DHT22;2816;49.778;9.986;2023-08-06T11:49:46;18.50;99.90
5588;DHT22;2816;49.778;9.986;2023-08-06T11:52:17;18.60;99.90
5588;DHT22;2816;49.778;9.986;2023-08-06T11:54:47;18.90;99.90
5588;DHT22;2816;49.778;9.986;2023-08-06T11:57:15;19.00;99.90
5588;DHT22;2816;49.778;9.986;2023-08-06T11:59:42;18.90;99.90
5588;DHT22;2816;49.778;9.986;2023-08-06T12:02:10;18.80;99.90
5588;DHT22;2816;49.778;9.986;2023-08-06T12:05:00;18.60;99.90
5588;DHT22;2816;49.778;9.986;2023-08-06T12:07:29;18.10;99.90
5588;DHT22;2816;49.778;9.986;2023-08-06T12:09:57;18.10;99.90
5588;DHT22;2816;49.778;9.986;2023-08-06T12:12:24;17.70;99.90
5588;DHT22;2816;49.778;9.986;2023-08-06T12:14:51;17.50;99.90
5588;DHT22;2816;49.778;9.986;2023-08-06T12:17:18;17.50;99.90
5588;DHT22;2816;49.778;9.986;2023-08-06T12:19:45;17.60;99.90
5588;DHT22;2816;49.778;9.986;2023-08-06T12:22:14;17.70;99.90
5588;DHT22;2816;49.778;9.986;2023-08-06T12:24:42;17.80;99.90
5588;DHT22;2816;49.778;9.986;2023-08-06T12:27:09;17.50;99.90
5588;DHT22;2816;49.778;9.986;2023-08-06T12:29:37;17.40;99.90
5588;DHT22;2816;49.778;9.986;2023-08-06T12:32:07;17.30;99.90
5588;DHT22;2816;49.778;9.986;2023-08-06T12:34:34;17.50;99.90
5588;DHT22;2816;49.778;9.986;2023-08-06T12:37:02;17.50;99.90
5588;DHT22;2816;49.778;9.986;2023-08-06T12:39:31;17.20;99.90
5588;DHT22;2816;49.778;9.986;2023-08-06T12:41:58;17.30;99.90
5588;DHT22;2816;49.778;9.986;2023-08-06T12:44:25;17.20;99.90
5588;DHT22;2816;49.778;9.986;2023-08-06T12:46:52;17.10;99.90
5588;DHT22;2816;49.778;9.986;2023-08-06T12:49:19;17.40;99.90
5588;DHT22;2816;49.778;9.986;2023-08-06T12:51:47;17.50;99.90
5588;DHT22;2816;49.778;9.986;2023-08-06T12:54:15;17.60;99.90
5588;DHT22;2816;49.778;9.986;2023-08-06T12:56:44;17.40;99.90
5588;DHT22;2816;49.778;9.986;2023-08-06T12:59:11;17.50;99.90
5588;DHT22;2816;49.778;9.986;2023-08-06T13:01:38;17.50;99.90
5588;DHT22;2816;49.778;9.986;2023-08-06T13:04:05;17.50;99.90
5588;DHT22;2816;49.778;9.986;2023-08-06T13:06:32;17.40;99.90
5588;DHT22;2816;49.778;9.986;2023-08-06T13:09:01;17.10;99.90
5588;DHT22;2816;49.778;9.986;2023-08-06T13:11:29;17.10;99.90
5588;DHT22;2816;49.778;9.986;2023-08-06T13:14:04;16.90;99.90
5588;DHT22;2816;49.778;9.986;2023-08-06T13:16:31;16.80;99.90
5588;DHT22;2816;49.778;9.986;2023-08-06T13:18:58;16.80;99.90
5588;DHT22;2816;49.778;9.986;2023-08-06T13:21:35;16.70;99.90
5588;DHT22;2816;49.778;9.986;2023-08-06T13:24:19;16.70;99.90
5588;DHT22;2816;49.778;9.986;2023-08-06T13:26:46;16.50;99.90
5588;DHT22;2816;49.778;9.986;2023-08-06T13:29:14;16.40;99.90
5588;DHT22;2816;49.778;9.986;2023-08-06T13:31:41;16.40;99.90
5588;DHT22;2816;49.778;9.986;2023-08-06T13:34:08;16.30;99.90
5588;DHT22;2816;49.778;9.986;2023-08-06T13:36:35;16.40;99.90
5588;DHT22;2816;49.778;9.986;2023-08-06T13:39:02;16.20;99.90
5588;DHT22;2816;49.778;9.986;2023-08-06T13:41:31;16.10;99.90
5588;DHT22;2816;49.778;9.986;2023-08-06T13:43:58;16.00;99.90
5588;DHT22;2816;49.778;9.986;2023-08-06T13:46:26;16.10;99.90
5588;DHT22;2816;49.778;9.986;2023-08-06T13:48:53;16.10;99.90
5588;DHT22;2816;49.778;9.986;2023-08-06T13:51:20;15.80;99.90
5588;DHT22;2816;49.778;9.986;2023-08-06T13:53:46;15.80;99.90
5588;DHT22;2816;49.778;9.986;2023-08-06T13:56:13;15.80;99.90
5588;DHT22;2816;49.778;9.986;2023-08-06T13:58:43;15.80;99.90
5588;DHT22;2816;49.778;9.986;2023-08-06T14:01:11;16.10;99.90
5588;DHT22;2816;49.778;9.986;2023-08-06T14:03:40;15.80;99.90
5588;DHT22;2816;49.778;9.986;2023-08-06T14:06:07;15.90;99.90
5588;DHT22;2816;49.778;9.986;2023-08-06T14:08:33;15.90;99.90
5588;DHT22;2816;49.778;9.986;2023-08-06T14:11:00;15.90;99.90
5588;DHT22;2816;49.778;9.986;2023-08-06T14:13:26;15.90;99.90
5588;DHT22;2816;49.778;9.986;2023-08-06T14:15:53;15.90;99.90
5588;DHT22;2816;49.778;9.986;2023-08-06T14:18:20;16.00;99.90
5588;DHT22;2816;49.778;9.986;2023-08-06T14:20:49;16.00;99.90
5588;DHT22;2816;49.778;9.986;2023-08-06T14:23:15;16.00;99.90
5588;DHT22;2816;49.778;9.986;2023-08-06T14:25:42;16.10;99.90
5588;DHT22;2816;49.778;9.986;2023-08-06T14:28:09;16.00;99.90
5588;DHT22;2816;49.778;9.986;2023-08-06T14:30:36;15.90;99.90
5588;DHT22;2816;49.778;9.986;2023-08-06T14:33:03;15.80;99.90
5588;DHT22;2816;49.778;9.986;2023-08-06T14:35:30;15.60;99.90
5588;DHT22;2816;49.778;9.986;2023-08-06T14:37:58;16.00;99.90
5588;DHT22;2816;49.778;9.986;2023-08-06T14:40:25;15.90;99.90
5588;DHT22;2816;49.778;9.986;2023-08-06T14:42:57;16.00;99.90
5588;DHT22;2816;49.778;9.986;2023-08-06T14:45:24;15.70;99.90
5588;DHT22;2816;49.778;9.986;2023-08-06T14:47:51;15.80;99.90
5588;DHT22;2816;49.778;9.986;2023-08-06T14:50:17;15.90;99.90
5588;DHT22;2816;49.778;9.986;2023-08-06T14:52:44;15.90;99.90
5588;DHT22;2816;49.778;9.986;2023-08-06T14:55:17;16.10;99.90
5588;DHT22;2816;49.778;9.986;2023-08-06T14:57:44;15.90;99.90
5588;DHT22;2816;49.778;9.986;2023-08-06T15:00:12;15.90;99.90
5588;DHT22;2816;49.778;9.986;2023-08-06T15:02:39;16.30;99.90
5588;DHT22;2816;49.778;9.986;2023-08-06T15:05:06;16.70;99.90
5588;DHT22;2816;49.778;9.986;2023-08-06T15:07:33;16.40;99.90
5588;DHT22;2816;49.778;9.986;2023-08-06T15:10:01;16.40;99.90
5588;DHT22;2816;49.778;9.986;2023-08-06T15:12:29;16.50;99.90
5588;DHT22;2816;49.778;9.986;2023-08-06T15:14:57;16.50;99.90
5588;DHT22;2816;49.778;9.986;2023-08-06T15:17:24;16.30;99.90
5588;DHT22;2816;49.778;9.986;2023-08-06T15:19:52;16.40;99.90
5588;DHT22;2816;49.778;9.986;2023-08-06T15:22:19;16.50;99.90
5588;DHT22;2816;49.778;9.986;2023-08-06T15:24:46;16.50;99.90
5588;DHT22;2816;49.778;9.986;2023-08-06T15:27:12;16.40;99.90
5588;DHT22;2816;49.778;9.986;2023-08-06T15:29:41;16.50;99.90
5588;DHT22;2816;49.778;9.986;2023-08-06T15:32:08;16.50;99.90
5588;DHT22;2816;49.778;9.986;2023-08-06T15:34:35;16.40;99.90
5588;DHT22;2816;49.778;9.986;2023-08-06T15:37:02;16.40;99.90
5588;DHT22;2816;49.778;9.986;2023-08-06T15:39:29;16.20;99.90
5588;DHT22;2816;49.778;9.986;2023-08-06T15:41:57;16.40;99.90
5588;DHT22;2816;49.778;9.986;2023-08-06T15:44:24;16.60;99.90
5588;DHT22;2816;49.778;9.986;2023-08-06T15:46:53;16.60;99.90
5588;DHT22;2816;49.778;9.986;2023-08-06T15:49:19;16.40;99.90
5588;DHT22;2816;49.778;9.986;2023-08-06T15:51:46;16.20;99.90
5588;DHT22;2816;49.778;9.986;2023-08-06T15:54:13;16.30;99.90
5588;DHT22;2816;49.778;9.986;2023-08-06T15:56:40;16.20;99.90
5588;DHT22;2816;49.778;9.986;2023-08-06T15:59:23;16.30;99.90
5588;DHT22;2816;49.778;9.986;2023-08-06T16:01:50;16.20;99.90
5588;DHT22;2816;49.778;9.986;2023-08-06T16:04:19;16.40;99.90
5588;DHT22;2816;49.778;9.986;2023-08-06T16:06:46;16.30;99.90